createdAt,value
2023-03-04T00:01:09.800Z,101447.59
2023-03-04T00:03:38.483Z,101443.00
2023-03-04T00:06:07.741Z,101455.31
2023-03-04T00:08:36.261Z,101447.63
2023-03-04T00:11:05.142Z,101449.34
2023-03-04T00:13:33.878Z,101464.97
2023-03-04T00:16:03.752Z,101460.63
2023-03-04T00:18:32.345Z,101460.16
2023-03-04T00:21:00.815Z,101454.34
2023-03-04T00:23:29.185Z,101455.13
2023-03-04T00:25:57.632Z,101456.81
2023-03-04T00:28:26.098Z,101461.34
2023-03-04T00:30:54.712Z,101450.59
2023-03-04T00:33:24.490Z,101450.50
2023-03-04T00:35:53.357Z,101454.09
2023-03-04T00:38:21.836Z,101454.34
2023-03-04T00:40:50.322Z,101450.75
2023-03-04T00:43:18.747Z,101447.00
2023-03-04T00:45:47.182Z,101454.88
2023-03-04T00:48:16.552Z,101465.28
2023-03-04T00:50:46.356Z,101455.19
2023-03-04T00:53:16.074Z,101460.31
2023-03-04T00:55:45.112Z,101461.16
2023-03-04T00:58:13.422Z,101454.06
2023-03-04T01:00:41.937Z,101453.66
2023-03-04T01:03:10.368Z,101444.00
2023-03-04T01:05:38.890Z,101450.06
2023-03-04T01:08:08.829Z,101445.53
2023-03-04T01:10:37.237Z,101447.44
2023-03-04T01:13:06.053Z,101441.19
2023-03-04T01:15:35.485Z,101437.59
2023-03-04T01:18:03.915Z,101447.34
2023-03-04T01:20:32.336Z,101436.56
2023-03-04T01:23:00.736Z,101438.09
2023-03-04T01:25:30.604Z,101431.88
2023-03-04T01:28:00.481Z,101435.16
2023-03-04T01:30:28.948Z,101425.50
2023-03-04T01:32:58.169Z,101428.94
2023-03-04T01:35:26.769Z,101426.38
2023-03-04T01:37:55.218Z,101415.78
2023-03-04T01:40:23.693Z,101420.03
2023-03-04T01:42:53.680Z,101414.91
2023-03-04T01:45:22.570Z,101393.28
2023-03-04T01:47:51.904Z,101414.16
2023-03-04T01:50:24.026Z,101409.25
2023-03-04T01:52:52.584Z,101412.84
2023-03-04T01:55:23.806Z,101405.34
2023-03-04T01:57:54.214Z,101401.84
2023-03-04T02:00:32.047Z,101397.38
2023-03-04T02:03:02.671Z,101394.06
2023-03-04T02:05:31.792Z,101389.53
2023-03-04T02:08:01.737Z,101382.72
2023-03-04T02:10:30.281Z,101389.19
2023-03-04T02:13:00.854Z,101382.00
2023-03-04T02:15:29.692Z,101386.44
2023-03-04T02:17:58.340Z,101388.84
2023-03-04T02:20:41.644Z,101382.59
2023-03-04T02:23:16.380Z,101379.34
2023-03-04T02:25:49.083Z,101371.41
2023-03-04T02:28:19.190Z,101365.19
2023-03-04T02:30:48.065Z,101358.19
2023-03-04T02:33:19.894Z,101365.94
2023-03-04T02:35:48.521Z,101359.88
2023-03-04T02:38:16.987Z,101361.59
2023-03-04T02:40:49.945Z,101359.88
2023-03-04T02:43:19.757Z,101356.47
2023-03-04T02:45:50.663Z,101360.06
2023-03-04T02:48:22.510Z,101350.59
2023-03-04T02:50:53.144Z,101351.53
2023-03-04T02:53:23.076Z,101344.44
2023-03-04T02:55:51.958Z,101341.81
2023-03-04T02:58:24.454Z,101346.81
2023-03-04T03:00:52.877Z,101339.06
2023-03-04T03:03:21.447Z,101321.34
2023-03-04T03:05:50.379Z,101342.06
2023-03-04T03:08:20.117Z,101345.06
2023-03-04T03:10:48.877Z,101336.28
2023-03-04T03:13:19.386Z,101340.16
2023-03-04T03:15:50.210Z,101339.50
2023-03-04T03:18:19.005Z,101337.97
2023-03-04T03:20:47.650Z,101336.25
2023-03-04T03:23:18.178Z,101337.19
2023-03-04T03:25:46.598Z,101332.06
2023-03-04T03:28:15.000Z,101331.22
2023-03-04T03:30:43.463Z,101331.81
2023-03-04T03:33:13.264Z,101330.44
2023-03-04T03:35:41.908Z,101321.25
2023-03-04T03:38:10.315Z,101330.63
2023-03-04T03:40:38.809Z,101330.72
2023-03-04T03:43:07.140Z,101329.00
2023-03-04T03:45:35.587Z,101330.25
2023-03-04T03:48:03.974Z,101326.75
2023-03-04T03:50:33.770Z,101307.22
2023-03-04T03:53:02.440Z,101328.53
2023-03-04T03:55:30.826Z,101313.19
2023-03-04T03:57:59.286Z,101327.09
2023-03-04T04:00:27.773Z,101315.66
2023-03-04T04:02:57.963Z,101319.75
2023-03-04T04:05:26.450Z,101315.22
2023-03-04T04:07:56.302Z,101298.25
2023-03-04T04:10:24.765Z,101312.59
2023-03-04T04:12:53.389Z,101310.19
2023-03-04T04:15:22.058Z,101318.13
2023-03-04T04:17:50.485Z,101323.44
2023-03-04T04:20:19.067Z,101325.22
2023-03-04T04:22:47.397Z,101327.03
2023-03-04T04:25:17.385Z,101326.75
2023-03-04T04:27:45.759Z,101322.56
2023-03-04T04:30:14.771Z,101326.34
2023-03-04T04:32:43.295Z,101328.22
2023-03-04T04:35:11.793Z,101319.53
2023-03-04T04:37:40.286Z,101329.25
2023-03-04T04:40:10.148Z,101328.22
2023-03-04T04:42:40.075Z,101332.56
2023-03-04T04:45:09.936Z,101338.63
2023-03-04T04:47:38.446Z,101334.47
2023-03-04T04:50:07.953Z,101338.03
2023-03-04T04:52:36.449Z,101333.19
2023-03-04T04:55:05.151Z,101348.97
2023-03-04T04:57:34.859Z,101341.88
2023-03-04T05:00:05.612Z,101342.91
2023-03-04T05:02:36.567Z,101343.69
2023-03-04T05:05:05.142Z,101348.03
2023-03-04T05:07:33.522Z,101340.94
2023-03-04T05:10:01.949Z,101346.91
2023-03-04T05:12:31.460Z,101348.63
2023-03-04T05:15:00.012Z,101346.84
2023-03-04T05:17:29.872Z,101349.75
2023-03-04T05:19:58.356Z,101349.75
2023-03-04T05:22:26.820Z,101347.19
2023-03-04T05:24:55.507Z,101342.91
2023-03-04T05:27:23.932Z,101354.09
2023-03-04T05:29:52.384Z,101348.72
2023-03-04T05:32:20.730Z,101351.28
2023-03-04T05:34:50.712Z,101346.84
2023-03-04T05:37:19.108Z,101354.84
2023-03-04T05:39:47.580Z,101352.97
2023-03-04T05:42:16.020Z,101347.69
2023-03-04T05:44:44.553Z,101359.81
2023-03-04T05:47:13.018Z,101360.66
2023-03-04T05:49:41.964Z,101360.84
2023-03-04T05:52:11.915Z,101363.38
2023-03-04T05:54:40.375Z,101356.66
2023-03-04T05:57:08.889Z,101369.19
2023-03-04T05:59:37.330Z,101371.00
2023-03-04T06:02:05.700Z,101375.69
2023-03-04T06:04:34.260Z,101377.47
2023-03-04T06:07:02.616Z,101367.38
2023-03-04T06:09:33.446Z,101363.28
2023-03-04T06:12:01.897Z,101379.06
2023-03-04T06:14:30.286Z,101370.94
2023-03-04T06:16:58.897Z,101375.47
2023-03-04T06:19:27.241Z,101378.19
2023-03-04T06:21:55.621Z,101377.59
2023-03-04T06:24:23.997Z,101383.22
2023-03-04T06:26:53.826Z,101386.66
2023-03-04T06:29:22.483Z,101385.63
2023-03-04T06:31:51.004Z,101386.31
2023-03-04T06:34:19.761Z,101383.91
2023-03-04T06:36:48.283Z,101381.34
2023-03-04T06:39:16.739Z,101383.22
2023-03-04T06:41:46.349Z,101384.84
2023-03-04T06:44:16.198Z,101387.16
2023-03-04T06:46:45.764Z,101387.66
2023-03-04T06:49:14.267Z,101383.59
2023-03-04T06:51:42.674Z,101400.47
2023-03-04T06:54:11.525Z,101400.81
2023-03-04T06:56:39.870Z,101398.59
2023-03-04T06:59:08.415Z,101400.13
2023-03-04T07:01:38.269Z,101406.59
2023-03-04T07:04:07.041Z,101407.78
2023-03-04T07:06:35.502Z,101400.09
2023-03-04T07:09:03.954Z,101407.22
2023-03-04T07:11:33.425Z,101407.38
2023-03-04T07:14:01.864Z,101406.63
2023-03-04T07:16:30.375Z,101408.47
2023-03-04T07:19:00.367Z,101406.94
2023-03-04T07:21:28.970Z,101411.66
2023-03-04T07:23:58.174Z,101403.00
2023-03-04T07:26:26.618Z,101421.69
2023-03-04T07:28:57.346Z,101422.81
2023-03-04T07:31:30.085Z,101415.16
2023-03-04T07:34:01.648Z,101428.50
2023-03-04T07:36:30.970Z,101425.00
2023-03-04T07:38:59.342Z,101420.69
2023-03-04T07:41:30.040Z,101428.69
2023-03-04T07:43:58.959Z,101433.34
2023-03-04T07:46:27.538Z,101426.81
2023-03-04T07:48:58.101Z,101421.97
2023-03-04T07:51:29.423Z,101431.50
2023-03-04T07:54:00.320Z,101429.34
2023-03-04T07:56:31.410Z,101425.16
2023-03-04T07:59:00.274Z,101426.97
2023-03-04T08:01:30.918Z,101428.88
2023-03-04T08:03:59.953Z,101413.44
2023-03-04T08:06:30.131Z,101429.81
2023-03-04T08:09:00.472Z,101397.88
2023-03-04T08:11:30.544Z,101427.53
2023-03-04T08:13:59.142Z,101420.66
2023-03-04T08:16:28.624Z,101425.59
2023-03-04T08:18:58.861Z,101421.63
2023-03-04T08:21:30.024Z,101417.59
2023-03-04T08:24:01.894Z,101420.34
2023-03-04T08:26:34.030Z,101421.41
2023-03-04T08:29:04.380Z,101392.16
2023-03-04T08:31:33.645Z,101429.13
2023-03-04T08:34:03.622Z,101429.03
2023-03-04T08:36:33.542Z,101424.06
2023-03-04T08:39:01.993Z,101423.22
2023-03-04T08:41:30.542Z,101423.69
2023-03-04T08:43:59.007Z,101393.72
2023-03-04T08:46:27.547Z,101423.41
2023-03-04T08:48:56.059Z,101413.59
2023-03-04T08:51:25.141Z,101416.34
2023-03-04T08:53:55.049Z,101417.22
2023-03-04T08:56:23.859Z,101419.16
2023-03-04T08:58:52.168Z,101404.31
2023-03-04T09:01:20.673Z,101414.81
2023-03-04T09:03:50.146Z,101411.38
2023-03-04T09:06:19.550Z,101406.19
2023-03-04T09:08:48.252Z,101396.03
2023-03-04T09:11:18.144Z,101412.84
2023-03-04T09:13:46.634Z,101413.69
2023-03-04T09:16:16.122Z,101413.41
2023-03-04T09:18:45.335Z,101369.06
2023-03-04T09:21:14.889Z,101413.47
2023-03-04T09:23:43.519Z,101418.84
2023-03-04T09:26:22.454Z,101414.81
2023-03-04T09:28:53.273Z,101408.59
2023-03-04T09:31:22.457Z,101424.84
2023-03-04T09:33:51.607Z,101422.63
2023-03-04T09:36:20.501Z,101419.25
2023-03-04T09:38:49.126Z,101417.84
2023-03-04T09:41:20.244Z,101417.44
2023-03-04T09:43:52.059Z,101409.72
2023-03-04T09:46:29.868Z,101412.28
2023-03-04T09:48:59.650Z,101414.38
2023-03-04T09:51:43.302Z,101411.41
2023-03-04T09:54:17.582Z,101408.03
2023-03-04T09:56:46.033Z,101411.28
2023-03-04T09:59:27.223Z,101417.50
2023-03-04T10:01:58.063Z,101408.59
2023-03-04T10:04:36.313Z,101390.63
2023-03-04T10:07:06.491Z,101415.09
2023-03-04T10:09:46.278Z,101404.34
2023-03-04T10:12:18.690Z,101414.38
2023-03-04T10:14:53.881Z,101413.69
2023-03-04T10:17:26.194Z,101415.78
2023-03-04T10:19:58.906Z,101418.19
2023-03-04T10:22:36.111Z,101414.94
2023-03-04T10:25:18.104Z,101390.16
2023-03-04T10:27:52.703Z,101371.09
2023-03-04T10:30:37.909Z,101397.94
2023-03-04T10:33:13.209Z,101401.34
2023-03-04T10:35:45.144Z,101393.44
2023-03-04T10:38:15.041Z,101396.28
2023-03-04T10:40:45.879Z,101393.75
2023-03-04T10:43:19.355Z,101398.25
2023-03-04T10:45:50.875Z,101392.75
2023-03-04T10:48:24.426Z,101363.53
2023-03-04T10:50:52.918Z,101381.03
2023-03-04T10:53:29.761Z,101381.69
2023-03-04T10:55:58.277Z,101381.22
2023-03-04T10:58:26.707Z,101387.13
2023-03-04T11:01:04.974Z,101376.31
2023-03-04T11:03:36.624Z,101374.19
2023-03-04T11:06:13.186Z,101375.44
2023-03-04T11:08:42.448Z,101378.69
2023-03-04T11:11:31.337Z,101348.88
2023-03-04T11:14:03.330Z,101371.81
2023-03-04T11:16:35.007Z,101358.56
2023-03-04T11:19:07.741Z,101354.34
2023-03-04T11:21:40.914Z,101355.28
2023-03-04T11:24:27.514Z,101354.75
2023-03-04T11:27:00.614Z,101348.28
2023-03-04T11:29:35.493Z,101348.88
2023-03-04T11:32:12.506Z,101345.81
2023-03-04T11:34:46.631Z,101322.53
2023-03-04T11:37:22.904Z,101337.94
2023-03-04T11:39:55.878Z,101295.06
2023-03-04T11:42:33.780Z,101323.00
2023-03-04T11:45:02.382Z,101316.84
2023-03-04T11:47:50.173Z,101315.22
2023-03-04T11:50:29.090Z,101307.44
2023-03-04T11:53:14.564Z,101296.72
2023-03-04T11:55:47.782Z,101274.66
2023-03-04T11:58:48.607Z,101303.66
2023-03-04T12:01:23.359Z,101297.59
2023-03-04T12:04:13.404Z,101293.72
2023-03-04T12:06:52.339Z,101289.00
2023-03-04T12:09:34.015Z,101283.47
2023-03-04T12:12:20.764Z,101287.06
2023-03-04T12:14:57.497Z,101283.19
2023-03-04T12:17:45.482Z,101277.81
2023-03-04T12:20:39.313Z,101269.56
2023-03-04T12:23:20.516Z,101267.22
2023-03-04T12:25:56.870Z,101261.03
2023-03-04T12:28:53.249Z,101261.06
2023-03-04T12:31:34.268Z,101259.22
2023-03-04T12:34:30.278Z,101253.44
2023-03-04T12:37:12.453Z,101248.03
2023-03-04T12:39:46.612Z,101251.28
2023-03-04T12:42:24.234Z,101245.53
2023-03-04T12:45:07.366Z,101232.78
2023-03-04T12:47:46.553Z,101231.75
2023-03-04T12:50:33.348Z,101237.16
2023-03-04T12:53:14.020Z,101232.94
2023-03-04T12:55:45.563Z,101227.53
2023-03-04T12:58:18.307Z,101215.41
2023-03-04T13:00:56.702Z,101217.13
2023-03-04T13:03:35.175Z,101211.22
2023-03-04T13:06:14.970Z,101206.00
2023-03-04T13:08:56.084Z,101203.94
2023-03-04T13:11:55.910Z,101200.56
2023-03-04T13:14:31.005Z,101186.72
2023-03-04T13:17:02.014Z,101191.41
2023-03-04T13:19:52.696Z,101187.69
2023-03-04T13:22:47.265Z,101177.72
2023-03-04T13:25:38.739Z,101172.81
2023-03-04T13:28:32.183Z,101170.50
2023-03-04T13:31:15.425Z,101181.28
2023-03-04T13:33:56.648Z,101168.13
2023-03-04T13:36:57.483Z,101164.78
2023-03-04T13:39:29.781Z,101159.03
2023-03-04T13:41:59.851Z,101160.06
2023-03-04T13:44:53.973Z,101154.34
2023-03-04T13:47:28.632Z,101121.84
2023-03-04T13:50:25.580Z,101150.13
2023-03-04T13:52:55.571Z,101153.38
2023-03-04T13:55:36.275Z,101144.94
2023-03-04T13:58:18.774Z,101152.81
2023-03-04T14:00:51.310Z,101136.84
2023-03-04T14:03:28.572Z,101143.53
2023-03-04T14:06:20.546Z,101142.69
2023-03-04T14:08:50.421Z,101143.88
2023-03-04T14:11:31.646Z,101132.75
2023-03-04T14:14:05.574Z,101134.44
2023-03-04T14:16:39.573Z,101128.03
2023-03-04T14:19:16.123Z,101123.53
2023-03-04T14:21:47.361Z,101120.66
2023-03-04T14:24:17.758Z,101111.88
2023-03-04T14:26:46.304Z,101116.44
2023-03-04T14:29:27.716Z,101117.13
2023-03-04T14:31:56.924Z,101109.06
2023-03-04T14:34:33.397Z,101117.28
2023-03-04T14:37:03.403Z,101111.72
2023-03-04T14:39:36.001Z,101086.97
2023-03-04T14:42:10.441Z,101106.13
2023-03-04T14:44:48.507Z,101115.88
2023-03-04T14:47:21.321Z,101101.38
2023-03-04T14:49:50.349Z,101103.75
2023-03-04T14:52:39.642Z,101097.00
2023-03-04T14:55:22.375Z,101067.13
2023-03-04T14:57:58.541Z,101097.75
2023-03-04T15:00:31.916Z,101068.00
2023-03-04T15:03:02.756Z,101095.09
2023-03-04T15:05:33.203Z,101097.78
2023-03-04T15:08:04.096Z,101100.84
2023-03-04T15:10:35.168Z,101103.19
2023-03-04T15:13:05.469Z,101102.19
2023-03-04T15:15:42.661Z,101071.88
2023-03-04T15:18:26.376Z,101092.41
2023-03-04T15:20:59.914Z,101094.28
2023-03-04T15:23:29.596Z,101092.75
2023-03-04T15:26:00.039Z,101096.47
2023-03-04T15:28:31.668Z,101093.44
2023-03-04T15:31:01.514Z,101090.44
2023-03-04T15:33:30.046Z,101091.41
2023-03-04T15:36:00.463Z,101093.44
2023-03-04T15:38:29.800Z,101100.34
2023-03-04T15:40:59.767Z,101090.72
2023-03-04T15:43:28.371Z,101091.91
2023-03-04T15:45:56.893Z,101091.72
2023-03-04T15:48:26.724Z,101091.75
2023-03-04T15:50:58.282Z,101087.72
2023-03-04T15:53:32.821Z,101077.94
2023-03-04T15:56:02.261Z,101095.44
2023-03-04T15:58:33.818Z,101093.06
2023-03-04T16:01:03.618Z,101087.69
2023-03-04T16:03:33.932Z,101092.72
2023-03-04T16:06:02.486Z,101095.91
2023-03-04T16:08:30.834Z,101096.06
2023-03-04T16:10:59.412Z,101087.81
2023-03-04T16:13:27.813Z,101086.63
2023-03-04T16:15:56.362Z,101084.06
2023-03-04T16:18:25.078Z,101084.22
2023-03-04T16:20:54.954Z,101086.91
2023-03-04T16:23:26.058Z,101054.31
2023-03-04T16:25:57.929Z,101088.53
2023-03-04T16:28:26.423Z,101089.31
2023-03-04T16:30:54.862Z,101098.72
2023-03-04T16:33:23.218Z,101093.47
2023-03-04T16:35:52.515Z,101094.13
2023-03-04T16:38:27.154Z,101093.91
2023-03-04T16:40:57.117Z,101098.75
2023-03-04T16:43:25.965Z,101098.53
2023-03-04T16:45:54.445Z,101098.25
2023-03-04T16:48:22.796Z,101104.94
2023-03-04T16:50:51.516Z,101106.28
2023-03-04T16:53:29.314Z,101110.59
2023-03-04T16:56:00.028Z,101112.34
2023-03-04T16:58:28.741Z,101097.97
2023-03-04T17:00:57.220Z,101106.56
2023-03-04T17:03:25.722Z,101114.47
2023-03-04T17:05:54.046Z,101112.25
2023-03-04T17:08:22.397Z,101118.72
2023-03-04T17:10:52.618Z,101117.66
2023-03-04T17:13:21.019Z,101127.47
2023-03-04T17:15:49.564Z,101125.97
2023-03-04T17:18:18.040Z,101121.19
2023-03-04T17:20:46.546Z,101119.13
2023-03-04T17:23:14.949Z,101125.78
2023-03-04T17:25:43.324Z,101126.38
2023-03-04T17:28:13.228Z,101121.41
2023-03-04T17:30:41.589Z,101132.31
2023-03-04T17:33:10.039Z,101136.78
2023-03-04T17:35:40.974Z,101135.81
2023-03-04T17:38:09.574Z,101141.91
2023-03-04T17:40:38.049Z,101133.09
2023-03-04T17:43:11.561Z,101132.69
2023-03-04T17:45:42.008Z,101136.25
2023-03-04T17:48:15.079Z,101134.44
2023-03-04T17:50:50.163Z,101141.38
2023-03-04T17:53:18.895Z,101154.78
2023-03-04T17:55:51.060Z,101143.50
2023-03-04T17:58:19.985Z,101151.28
2023-03-04T18:00:50.960Z,101152.56
2023-03-04T18:03:20.581Z,101155.38
2023-03-04T18:05:48.854Z,101166.41
2023-03-04T18:08:17.218Z,101161.75
2023-03-04T18:10:45.590Z,101165.69
2023-03-04T18:13:13.986Z,101170.34
2023-03-04T18:15:42.398Z,101172.44
2023-03-04T18:18:12.235Z,101178.91
2023-03-04T18:20:40.737Z,101182.59
2023-03-04T18:23:09.226Z,101185.50
2023-03-04T18:25:37.756Z,101178.47
2023-03-04T18:28:06.483Z,101180.72
2023-03-04T18:30:34.914Z,101178.25
2023-03-04T18:33:04.202Z,101181.06
2023-03-04T18:35:34.121Z,101183.97
2023-03-04T18:38:02.571Z,101179.97
2023-03-04T18:40:31.888Z,101185.53
2023-03-04T18:43:00.273Z,101191.69
2023-03-04T18:45:28.991Z,101186.59
2023-03-04T18:47:58.315Z,101190.53
2023-03-04T18:50:26.888Z,101196.00
2023-03-04T18:52:56.728Z,101191.78
2023-03-04T18:55:25.508Z,101200.94
2023-03-04T18:57:58.174Z,101204.13
2023-03-04T19:00:26.957Z,101199.31
2023-03-04T19:03:00.047Z,101201.97
2023-03-04T19:05:32.921Z,101209.53
2023-03-04T19:08:02.785Z,101209.81
2023-03-04T19:10:31.279Z,101214.00
2023-03-04T19:12:59.810Z,101216.09
2023-03-04T19:15:28.322Z,101212.09
2023-03-04T19:17:56.738Z,101213.09
2023-03-04T19:20:25.239Z,101221.34
2023-03-04T19:22:53.671Z,101211.91
2023-03-04T19:25:23.581Z,101217.38
2023-03-04T19:27:55.506Z,101214.13
2023-03-04T19:30:24.051Z,101217.06
2023-03-04T19:32:52.462Z,101224.50
2023-03-04T19:35:20.836Z,101222.34
2023-03-04T19:37:49.385Z,101221.75
2023-03-04T19:40:17.957Z,101222.72
2023-03-04T19:42:47.727Z,101222.72
2023-03-04T19:45:16.319Z,101216.41
2023-03-04T19:47:44.686Z,101227.09
2023-03-04T19:50:14.255Z,101217.41
2023-03-04T19:52:43.399Z,101224.41
2023-03-04T19:55:13.931Z,101229.88
2023-03-04T19:57:43.452Z,101237.03
2023-03-04T20:00:15.476Z,101227.72
2023-03-04T20:02:45.702Z,101233.06
2023-03-04T20:05:14.111Z,101236.81
2023-03-04T20:07:43.995Z,101242.41
2023-03-04T20:10:14.485Z,101211.66
2023-03-04T20:12:43.043Z,101235.78
2023-03-04T20:15:13.580Z,101241.00
2023-03-04T20:17:42.113Z,101237.63
2023-03-04T20:20:12.603Z,101241.97
2023-03-04T20:22:41.109Z,101236.16
2023-03-04T20:25:10.094Z,101235.91
2023-03-04T20:27:38.555Z,101237.63
2023-03-04T20:30:07.868Z,101240.16
2023-03-04T20:32:37.724Z,101236.75
2023-03-04T20:35:06.887Z,101189.44
2023-03-04T20:37:36.236Z,101239.09
2023-03-04T20:40:04.863Z,101242.00
2023-03-04T20:42:34.058Z,101235.94
2023-03-04T20:45:02.444Z,101243.09
2023-03-04T20:47:31.365Z,101177.59
2023-03-04T20:50:01.128Z,101249.34
2023-03-04T20:52:29.485Z,101249.59
2023-03-04T20:54:57.975Z,101249.84
2023-03-04T20:57:26.392Z,101251.19
2023-03-04T20:59:54.999Z,101251.75
2023-03-04T21:02:23.625Z,101246.94
2023-03-04T21:04:52.249Z,101115.19
2023-03-04T21:07:22.026Z,101221.66
2023-03-04T21:09:50.425Z,101251.78
2023-03-04T21:12:18.910Z,101248.53
2023-03-04T21:14:47.874Z,101241.50
2023-03-04T21:17:16.732Z,101243.44
2023-03-04T21:19:46.820Z,101243.66
2023-03-04T21:22:17.201Z,101237.16
2023-03-04T21:24:48.060Z,101241.28
2023-03-04T21:27:16.979Z,101235.81
2023-03-04T21:29:46.494Z,101231.09
2023-03-04T21:32:24.143Z,101231.47
2023-03-04T21:34:54.026Z,101233.75
2023-03-04T21:37:23.864Z,101233.13
2023-03-04T21:39:54.415Z,101223.09
2023-03-04T21:42:22.975Z,101218.97
2023-03-04T21:44:52.057Z,101230.59
2023-03-04T21:47:21.172Z,101219.69
2023-03-04T21:49:50.043Z,101215.94
2023-03-04T21:52:19.252Z,101219.47
2023-03-04T21:54:48.351Z,101213.91
2023-03-04T21:57:18.596Z,101204.56
2023-03-04T21:59:47.516Z,101213.66
2023-03-04T22:02:17.560Z,101216.69
2023-03-04T22:04:46.500Z,101211.38
2023-03-04T22:07:15.479Z,101212.53
2023-03-04T22:09:43.940Z,101210.13
2023-03-04T22:12:12.905Z,101155.41
2023-03-04T22:14:42.754Z,101208.69
2023-03-04T22:17:11.195Z,101211.84
2023-03-04T22:19:39.570Z,101211.59
2023-03-04T22:22:08.029Z,101209.16
2023-03-04T22:24:36.375Z,101210.34
2023-03-04T22:27:04.897Z,101206.25
2023-03-04T22:29:33.310Z,101204.28
2023-03-04T22:32:03.228Z,101204.38
2023-03-04T22:34:31.768Z,101202.25
2023-03-04T22:37:00.211Z,101209.75
2023-03-04T22:39:28.784Z,101204.50
2023-03-04T22:41:57.245Z,101200.78
2023-03-04T22:44:25.700Z,101194.13
2023-03-04T22:46:54.123Z,101194.13
2023-03-04T22:49:23.912Z,101198.69
2023-03-04T22:51:52.272Z,101197.38
2023-03-04T22:54:21.063Z,101201.13
2023-03-04T22:56:49.534Z,101194.44
2023-03-04T22:59:17.986Z,101196.97
2023-03-04T23:01:46.361Z,101190.69
2023-03-04T23:04:14.837Z,101192.63
2023-03-04T23:06:44.716Z,101189.34
2023-03-04T23:09:13.187Z,101191.38
2023-03-04T23:11:41.613Z,101194.16
2023-03-04T23:14:11.987Z,101188.97
2023-03-04T23:16:43.407Z,101184.47
2023-03-04T23:19:13.841Z,101182.72
2023-03-04T23:21:42.799Z,101182.44
2023-03-04T23:24:14.068Z,101180.63
2023-03-04T23:26:43.584Z,101186.31
2023-03-04T23:29:15.851Z,101173.13
2023-03-04T23:31:44.799Z,101181.44
2023-03-04T23:34:13.321Z,101183.38
2023-03-04T23:36:43.270Z,101177.84
2023-03-04T23:39:14.350Z,101179.44
2023-03-04T23:41:43.988Z,101139.78
2023-03-04T23:44:13.197Z,101185.31
2023-03-04T23:46:42.161Z,101182.53
2023-03-04T23:49:14.173Z,101184.13
2023-03-04T23:51:44.458Z,101179.53
2023-03-04T23:54:15.061Z,101170.81
2023-03-04T23:56:43.537Z,101171.91
2023-03-04T23:59:12.364Z,101177.22
